x

9442396 - La Push, Wa (lapw1) Weather Station

9:36 - Tue 22nd Aug 2017 All times are PDT. -7 hours from GMT.

  • Wind
    3mph, 3mph gusts
  • Sea Temp 49°f
  • Luft Temp 57°f
  • Sea Pressure 1018.6mb
  • 9442396 - La Push, Wa
  • 9442396 - La Push, Wa

More Historic Weather Station data

Upgrade to MSW Pro to gain access to the past 30 days of data for over 8000 Wavebouys and Weather Stations around the globe.

Join

Comparision Forecast

View Surf forecast
   
Di 08/22 9:36 3 3 mph 1018.6mb 49f 57f
9:30 3 6 mph 1018.6mb 49f 57f
9:24 5 7 mph 1018.6mb 49f 58f
9:18 6 7 mph 1018.7mb 49f 58f
9:12 5 6 mph 1018.7mb 50f 58f
9:06 6 7 mph 1018.6mb 49f 58f
9:00 5 6 mph 1018.6mb 50f 58f
8:36  -  3 mph - 50f 58f
8:30 1 2 mph - 50f 58f
8:24 2 3 mph - 51f 57f
8:18 2 3 mph - 51f 58f
8:12 3 6 mph - 52f 58f
8:06 5 6 mph - 54f 58f
8:00 5 6 mph - 54f 57f
7:36 3 6 mph 1018.2mb 55f 57f
7:30 5 6 mph 1018.2mb 55f 57f
7:24 5 7 mph 1018.2mb 55f 57f
7:18 6 7 mph 1018.2mb 54f 57f
7:12 6 7 mph 1018.2mb 53f 57f
7:06 6 8 mph 1018.2mb 52f 57f
7:00 6 8 mph 1018.2mb 51f 57f
6:36 6 8 mph 1018.1mb 48f 57f
6:30 6 8 mph 1018.1mb 48f 58f
6:24 8 10 mph 1018mb 48f 58f
6:18 9 10 mph 1018mb 47f 58f
6:12 9 11 mph 1018mb 47f 58f
6:06 6 9 mph 1018mb 47f 58f
6:00 6 8 mph 1018mb 47f 58f
5:36 5 6 mph 1018.2mb 47f 58f
5:30 5 7 mph 1018.2mb 47f 58f
5:24 5 6 mph 1018.2mb 47f 58f
5:18 3 6 mph 1018.3mb 46f 57f
5:12 5 6 mph 1018.4mb 47f 57f
5:06 5 6 mph 1018.5mb 46f 57f
5:00 3 5 mph 1018.6mb 46f 56f
4:36 6 8 mph 1018.7mb 46f 56f
4:30 6 8 mph 1018.7mb 46f 56f
4:24 3 6 mph 1018.7mb 46f 56f
4:18 3 6 mph 1018.7mb 46f 56f
4:12 3 6 mph 1018.7mb 46f 56f
4:06 3 6 mph 1018.7mb 46f 56f
4:00 5 7 mph 1018.7mb 46f 55f
3:36 6 9 mph 1018.9mb 46f 55f
3:30 8 10 mph 1018.9mb 46f 55f
3:24 8 11 mph 1018.9mb 46f 55f
3:18 8 9 mph 1018.9mb 46f 55f
3:12 7 9 mph 1018.7mb 46f 55f
3:06 7 10 mph 1018.7mb 46f 56f
3:00 7 9 mph 1018.7mb 46f 55f
2:36 8 9 mph 1018.7mb 46f 55f
2:30 7 9 mph 1018.6mb 46f 55f
2:24 6 7 mph 1018.6mb 46f 55f
2:18 7 8 mph 1018.6mb 47f 56f
2:12 7 8 mph 1018.6mb 47f 55f
2:06 7 8 mph 1018.6mb 47f 55f
2:00 6 7 mph 1018.6mb 47f 55f
1:36 6 7 mph 1018.5mb 48f 55f
1:30 6 7 mph 1018.4mb 48f 55f
1:24 7 8 mph 1018.5mb 48f 55f
1:18 7 9 mph 1018.5mb 49f 55f
1:12 8 9 mph 1018.5mb 48f 55f
1:06 8 10 mph 1018.5mb 47f 55f
1:00 7 9 mph 1018.5mb 47f 54f
12:36 9 11 mph 1018.3mb 47f 54f
12:30 8 10 mph 1018.2mb 47f 54f
12:24 6 8 mph 1018.1mb 47f 54f
12:18 6 8 mph 1018mb 47f 54f
12:12 7 9 mph 1018mb 47f 54f
12:06 8 13 mph 1018mb 48f 55f
12:00 11 14 mph 1018mb 48f 55f
11:36 9 11 mph 1017.9mb 47f 54f
11:30 10 11 mph 1017.9mb 48f 54f
11:24 9 11 mph 1017.8mb 48f 54f
11:18 9 11 mph 1017.8mb 48f 54f
11:12 10 14 mph 1017.8mb 48f 54f
11:06 8 11 mph 1017.9mb 48f 54f
11:00 9 11 mph 1017.8mb 48f 54f
10:36 6 8 mph 1017.7mb 47f 54f
10:30 7 10 mph 1017.6mb 48f 54f
10:24 7 11 mph 1017.5mb 48f 55f
10:18 8 11 mph 1017.5mb 49f 55f
10:12 9 14 mph 1017.5mb 49f 55f
10:06 11 14 mph 1017.6mb 49f 55f
10:00 10 14 mph 1017.6mb 49f 55f
9:36 10 14 mph 1017.6mb 50f 54f
9:30 10 14 mph 1017.6mb 50f 54f
9:24 10 14 mph 1017.6mb 51f 54f
9:18 10 13 mph 1017.6mb 51f 54f
9:12 6 9 mph 1017.5mb 52f 53f
9:06 5 6 mph 1017.4mb 53f 53f
9:00 5 8 mph 1017.3mb 54f 53f
8:36 7 8 mph 1017.3mb 55f 53f
8:30 7 8 mph 1017.3mb 55f 53f
8:24 7 8 mph 1017.2mb 55f 52f
8:18 5 6 mph 1017.1mb 55f 53f
8:12 5 9 mph 1017.1mb 56f 53f
8:06 7 9 mph 1017mb 57f 52f
8:00 6 8 mph 1017mb 57f 52f
7:36 7 8 mph 1017.1mb 56f 52f
7:30 6 8 mph 1017mb 56f 53f
7:24 3 6 mph 1016.8mb 56f 53f
7:18 2 3 mph 1016.7mb 55f 53f
7:12  -  2 mph 1016.6mb 55f 53f
7:06  -  1 mph 1016.5mb 55f 52f
7:00  -  1 mph 1016.4mb 55f 52f
6:36  -  0 mph 1016.4mb 54f 53f
6:30  -  1 mph 1016.3mb 54f 53f
6:24 2 2 mph 1016.2mb 54f 52f
6:18  -  0 mph 1016.3mb 54f 52f
6:12  -  0 mph 1016.2mb 53f 53f
6:06  -  1 mph 1016.2mb 53f 53f
6:00  -  0 mph 1016.2mb 50f 53f
5:36 6 7 mph 1016.1mb 49f 53f
5:30 5 7 mph 1016.2mb 49f 53f
5:24 6 8 mph 1016.2mb 49f 53f
5:18 6 8 mph 1016.2mb 49f 53f
5:12 6 8 mph 1016.1mb 49f 53f
5:06 7 9 mph 1016.2mb 49f 53f
5:00 6 8 mph 1016.1mb 49f 53f
4:36 7 8 mph 1016.1mb 49f 53f
4:30 6 8 mph 1016.2mb 49f 53f
4:24 7 9 mph 1016.3mb 48f 53f
4:18 6 9 mph 1016.2mb 48f 53f
4:12 7 10 mph 1016.2mb 48f 53f
4:06 8 10 mph 1016.3mb 48f 54f
4:00 8 9 mph 1016.2mb 48f 54f
3:36 6 8 mph 1016.1mb 48f 54f
3:30 7 8 mph 1016.1mb 48f 55f
3:24 7 8 mph 1016.1mb 48f 54f
3:18 6 9 mph 1016.2mb 48f 55f
3:12 7 10 mph 1016.2mb 49f 55f
3:06 8 9 mph 1016.2mb 49f 55f
3:00 7 8 mph 1016.2mb 48f 54f
2:36 8 10 mph 1016.2mb 49f 54f
2:30 8 10 mph 1016.2mb 49f 54f
2:24 8 10 mph 1016.3mb 49f 54f
2:18 8 10 mph 1016.2mb 49f 54f
2:12 9 10 mph 1016.3mb 49f 54f
2:06 7 9 mph 1016.3mb 49f 54f
2:00 6 8 mph 1016.3mb 49f 55f
1:36 7 9 mph 1016.4mb 49f 54f
1:30 7 13 mph 1016.4mb 49f 54f
1:24 10 13 mph 1016.4mb 49f 55f
1:18 10 11 mph 1016.4mb 49f 55f
1:12 11 13 mph 1016.3mb 49f 54f
1:06 11 13 mph 1016.3mb 49f 54f
1:00 9 11 mph 1016.3mb 49f 54f
12:36 1 2 mph 1016.3mb 49f 55f
12:30  -  3 mph 1016.3mb 49f 55f
12:24 2 5 mph 1016.3mb 49f 55f
12:18 5 6 mph 1016.3mb 49f 55f
12:12 6 6 mph 1016.3mb 49f 55f
12:06 6 7 mph 1016.4mb 49f 55f
12:00 6 7 mph 1016.4mb 49f 56f
Mo 08/21 11:36 5 8 mph 1016.3mb 49f 56f
11:30 8 9 mph 1016.3mb 49f 56f
11:24 7 11 mph 1016.4mb 49f 55f
11:18 8 11 mph 1016.4mb 49f 56f
11:12 8 10 mph 1016.4mb 49f 56f
11:06 6 10 mph 1016.3mb 49f 55f
11:00 7 9 mph 1016.4mb 49f 54f
10:54 7 10 mph 1016.5mb 49f 54f
10:48 9 11 mph 1016.5mb 49f 54f
10:36 8 11 mph 1016.5mb 49f 54f
10:30 10 13 mph 1016.4mb 49f 54f
10:24 10 15 mph 1016.4mb 49f 54f
10:18 11 14 mph 1016.3mb 49f 55f
10:12 11 15 mph 1016.3mb 49f 55f
10:06 13 15 mph 1016.4mb 49f 56f
10:00 14 16 mph 1016.4mb 50f 56f
9:54 14 17 mph 1016.5mb 50f 55f
9:48 13 15 mph 1016.6mb 50f 56f
9:36 11 15 mph 1016.6mb 50f 57f
9:30 11 16 mph 1016.6mb 50f 58f
9:24 14 18 mph 1016.6mb 50f 58f
9:18 15 18 mph 1016.6mb 50f 57f
9:12 16 21 mph 1016.6mb 50f 58f
9:06 18 21 mph 1016.5mb 51f 58f
9:00 18 20 mph 1016.5mb 51f 59f
8:54 18 22 mph 1016.5mb 51f 58f
8:48 21 23 mph 1016.5mb 51f 58f
8:36 21 24 mph 1016.6mb 51f 58f
8:30 22 24 mph 1016.6mb 51f 58f
8:24 21 23 mph 1016.6mb 51f 59f
8:18 20 23 mph 1016.6mb 52f 58f
8:12 20 22 mph 1016.7mb 52f 58f
8:06 16 21 mph 1016.6mb 52f 58f
8:00 14 16 mph 1016.6mb 52f 58f
7:54 13 17 mph 1016.6mb 53f 58f
7:48 14 17 mph 1016.6mb 53f 57f
7:36 15 17 mph 1016.7mb 54f 56f
7:30 14 17 mph 1016.8mb 54f 57f
7:24 14 17 mph 1016.8mb 54f 56f
7:18 16 18 mph 1016.8mb 54f 56f
7:12 15 21 mph 1016.9mb 54f 56f
7:06 20 23 mph 1017mb 55f 56f
7:00 20 24 mph 1017mb 55f 57f
6:54 21 23 mph 1017mb 55f 57f
6:48 21 25 mph 1016.9mb 56f 57f
6:36 21 25 mph 1016.9mb 55f 57f
6:30 21 24 mph 1017mb 55f 58f
6:24 20 23 mph 1017mb 55f 58f
6:18 20 22 mph 1017.1mb 55f 58f
6:12 20 22 mph 1017.2mb 55f 57f
6:06 21 23 mph 1017.3mb 53f 57f
6:00 21 25 mph 1017.3mb 51f 57f
5:54 22 24 mph 1017.3mb 51f 57f
5:48 22 25 mph 1017.4mb 50f 58f
5:36 21 24 mph 1017.4mb 49f 58f
5:30 20 23 mph 1017.5mb 49f 59f
5:24 21 23 mph 1017.5mb 50f 59f
5:18 21 24 mph 1017.5mb 49f 59f
5:12 21 23 mph 1017.7mb 49f 59f
5:06 21 23 mph 1017.7mb 49f 58f
5:00 21 24 mph 1017.9mb 50f 58f
4:54 21 24 mph 1017.9mb 50f 58f
4:48 22 25 mph 1017.9mb 50f 58f
4:36 20 24 mph 1018.1mb 49f 58f
4:30 21 24 mph 1018.2mb 49f 56f
4:24 22 28 mph 1018.3mb 49f 57f
4:18 22 25 mph 1018.4mb 49f 57f
4:12 22 25 mph 1018.4mb 49f 56f
4:06 23 26 mph 1018.5mb 49f 55f
4:00 22 26 mph 1018.6mb 49f 56f
3:54 21 26 mph 1018.6mb 49f 56f
3:48 23 26 mph 1018.7mb 49f 56f
3:36 23 26 mph 1018.8mb 48f 55f
3:30 22 26 mph 1018.8mb 48f 57f
3:24 21 24 mph 1018.9mb 48f 56f
3:18 21 25 mph 1019mb 48f 55f
3:12 20 23 mph 1019.1mb 48f 55f
3:06 20 24 mph 1019.2mb 48f 55f
3:00 20 25 mph 1019.3mb 48f 55f
2:54 21 24 mph 1019.3mb 48f 55f
2:48 21 25 mph 1019.3mb 48f 55f
2:36 21 23 mph 1019.4mb 48f 55f
2:30 20 23 mph 1019.3mb 48f 55f
2:24 18 22 mph 1019.5mb 48f 55f
2:18 18 22 mph 1019.5mb 48f 55f
2:12 15 18 mph 1019.5mb 48f 55f
2:06 15 17 mph 1019.5mb 48f 55f
2:00 14 20 mph 1019.5mb 47f 55f
1:54 17 20 mph 1019.5mb 48f 55f
1:48 16 21 mph 1019.5mb 48f 54f
1:36 16 20 mph 1019.8mb 48f 54f
1:30 14 16 mph 1019.9mb 48f 54f
1:24 15 20 mph 1019.9mb 48f 54f
1:18 13 17 mph 1020mb 48f 54f
1:12 13 16 mph 1020mb 48f 54f
1:06 13 15 mph 1020mb 48f 54f
1:00 9 13 mph 1020mb 47f 53f
12:54 7 9 mph 1020mb 48f 53f
12:48 8 13 mph 1020.1mb 48f 53f
12:36 8 11 mph 1020.2mb 47f 53f
12:30 8 10 mph 1020.3mb 48f 53f
12:24 8 11 mph 1020.2mb 48f 53f
12:18 10 13 mph 1020.3mb 48f 53f
12:12 13 16 mph 1020.4mb 47f 53f
12:06 14 16 mph 1020.5mb 47f 53f
12:00 11 15 mph 1020.5mb 47f 52f
11:54 9 13 mph 1020.7mb 47f 52f
11:48 10 14 mph 1020.7mb 46f 52f
11:36 9 11 mph 1020.5mb 46f 52f
11:30 9 10 mph 1020.4mb 46f 52f
11:24 9 13 mph 1020.4mb 46f 52f
11:18 8 10 mph 1020.5mb 46f 52f
11:12 7 8 mph 1020.5mb 46f 52f
11:06 5 6 mph 1020.3mb 46f 52f
11:00 3 5 mph 1020.3mb 46f 52f
10:54 3 5 mph 1020.2mb 46f 52f
10:36 1 3 mph 1020.3mb 47f 52f
10:30 3 5 mph 1020.3mb 47f 52f
10:24 3 5 mph 1020.3mb 47f 52f
10:18 2 3 mph 1020.2mb 47f 52f
10:12 2 3 mph 1020.2mb 47f 53f
10:06 2 5 mph 1020.3mb 47f 52f
10:00 5 8 mph 1020.3mb 47f 52f
9:54 7 8 mph 1020.4mb 47f 52f
9:48 6 9 mph 1020.6mb 47f 52f
9:36 9 11 mph 1020.7mb 48f 53f
9:30 9 11 mph 1020.8mb 47f 52f
9:24 8 10 mph 1020.8mb 47f 53f
9:18 8 9 mph 1020.7mb 48f 52f
9:12 7 9 mph 1020.8mb 48f 52f
9:06 8 10 mph 1020.8mb 48f 52f
9:00 9 10 mph 1020.8mb 49f 52f
8:54 6 8 mph 1020.8mb 49f 53f
8:48 8 10 mph 1020.8mb 50f 52f
8:36 6 8 mph 1020.7mb 52f 53f
8:30 7 8 mph 1020.7mb 53f 53f
8:24 7 9 mph 1020.7mb 54f 53f
8:18 7 8 mph 1020.7mb 55f 53f
8:12 8 10 mph 1020.7mb 55f 53f
8:06 9 10 mph 1020.7mb 56f 53f
8:00 9 10 mph 1020.8mb 56f 53f
7:54 9 10 mph 1020.7mb 56f 53f
7:48 8 10 mph 1020.7mb 56f 53f
7:36 7 9 mph 1020.5mb 56f 53f
7:30 8 9 mph 1020.6mb 56f 53f
7:24 8 9 mph 1020.6mb 56f 53f
7:18 7 9 mph 1020.6mb 56f 54f
7:12 7 9 mph 1020.6mb 56f 54f
7:06 7 9 mph 1020.5mb 56f 54f
7:00 7 8 mph 1020.4mb 56f 54f
6:54 6 7 mph 1020.4mb 56f 54f
6:48 5 7 mph 1020.4mb 56f 54f
6:36 6 7 mph 1020.5mb 56f 54f
6:30 6 7 mph 1020.5mb 56f 54f
6:24 6 7 mph 1020.5mb 56f 54f
6:18 6 7 mph 1020.5mb 56f 54f
6:12 7 8 mph 1020.5mb 56f 54f
6:06 6 7 mph 1020.6mb 56f 54f
6:00 6 8 mph 1020.5mb 55f 54f
5:54 8 9 mph 1020.5mb 56f 54f
5:48 7 8 mph 1020.5mb 56f 54f
5:36 6 8 mph 1020.5mb 55f 54f
5:30 7 8 mph 1020.5mb 55f 54f
5:24 7 8 mph 1020.5mb 55f 54f
5:18 7 8 mph 1020.4mb 54f 55f
5:12 6 7 mph 1020.4mb 52f 55f
5:06 6 7 mph 1020.3mb 51f 55f
5:00 3 5 mph 1020.3mb 50f 55f
4:54 5 5 mph 1020.2mb 48f 55f
4:48 3 5 mph 1020.2mb 48f 55f
4:36 6 7 mph 1020.2mb 48f 55f
4:30 5 6 mph 1020.3mb 48f 55f
4:24 5 5 mph 1020.4mb 48f 55f
4:18 5 5 mph 1020.5mb 48f 55f
4:12 3 6 mph 1020.5mb 47f 55f
4:06 5 8 mph 1020.6mb 47f 55f
4:00 6 7 mph 1020.7mb 48f 55f
3:54 5 6 mph 1020.7mb 47f 55f
3:48 3 6 mph 1020.8mb 47f 55f
3:36 7 8 mph 1020.7mb 47f 55f
3:30 8 9 mph 1020.8mb 47f 55f
3:24 7 9 mph 1020.8mb 47f 55f
3:18 7 8 mph 1020.8mb 47f 55f
3:12 6 7 mph 1020.7mb 46f 55f
3:06 5 6 mph 1020.8mb 47f 55f
3:00 5 6 mph 1020.8mb 47f 55f
2:54 3 5 mph 1020.8mb 47f 56f
2:48 3 5 mph 1020.7mb 47f 56f
2:36 5 7 mph 1020.8mb 46f 56f
2:30 6 7 mph 1020.8mb 46f 56f
2:24 6 7 mph 1020.8mb 46f 57f
2:18 6 7 mph 1020.7mb 46f 57f
2:12 3 5 mph 1020.7mb 46f 57f
2:06 2 5 mph 1020.7mb 46f 57f
2:00 2 5 mph 1020.7mb 46f 57f
1:54 3 5 mph 1020.7mb 46f 57f
1:48 2 5 mph 1020.8mb 46f 57f
1:36 6 7 mph 1020.8mb 48f 56f
1:30 6 8 mph 1020.8mb 47f 57f
1:24 6 8 mph 1020.9mb 47f 56f
1:18 5 6 mph 1020.9mb 47f 56f
1:12 5 8 mph 1021mb 47f 57f
1:06 5 7 mph 1021mb 47f 56f
1:00 5 7 mph 1021mb 47f 56f
12:54 6 7 mph 1021mb 47f 57f
12:48 6 8 mph 1021mb 47f 57f
12:36 5 7 mph 1021.1mb 47f 57f
12:30 6 8 mph 1021.2mb 47f 57f
12:24 6 7 mph 1021.2mb 47f 58f
12:18 6 7 mph 1021.2mb 47f 57f
12:12 7 8 mph 1021.1mb 47f 57f
12:06 8 9 mph 1021.1mb 47f 57f
12:00 6 7 mph 1021.1mb 47f 57f
So 08/20 11:54 7 8 mph 1021.2mb 47f 57f
11:48 8 9 mph 1021.1mb 47f 57f
11:36 6 7 mph 1021.1mb 47f 57f
11:30 6 7 mph 1021.1mb 47f 57f
11:24 6 7 mph 1021.1mb 47f 57f
11:18 6 8 mph 1021.1mb 47f 57f
11:12 7 8 mph 1021.1mb 47f 58f
11:06 6 8 mph 1021.1mb 47f 58f
11:00 6 7 mph 1021.1mb 47f 58f
10:54 6 7 mph 1021.1mb 47f 57f
10:48 6 7 mph 1021.1mb 47f 58f
10:36 6 8 mph 1021.1mb 47f 57f
10:30 6 8 mph 1021.1mb 47f 58f
10:24 8 9 mph 1021.2mb 47f 57f
10:18 6 8 mph 1021.2mb 47f 57f
10:12 6 8 mph 1021.1mb 47f 58f
10:06 7 9 mph 1021.2mb 47f 59f
10:00 3 5 mph 1021.1mb 47f 59f
9:54 5 6 mph 1021.2mb 47f 58f
9:48 5 7 mph 1021.2mb 47f 59f
9:36 6 9 mph 1021.2mb 47f 59f
9:30 8 9 mph 1021.2mb 47f 59f
9:24 8 9 mph 1021.2mb 47f 59f
9:18 7 8 mph 1021.2mb 47f 60f
9:12 8 10 mph 1021.1mb 47f 60f
9:06 9 11 mph 1021.1mb 47f 59f
9:00 8 10 mph 1021.2mb 47f 60f
8:54 9 11 mph 1021.2mb 47f 60f
8:48 7 9 mph 1021.2mb 47f 60f
8:36 9 10 mph 1021.1mb 47f 59f
8:30 8 10 mph 1021.1mb 47f 59f
8:24 9 11 mph 1021mb 47f 58f
8:18 9 11 mph 1021mb 48f 58f
8:12 9 10 mph 1021mb 48f 58f
8:06 9 11 mph 1021mb 48f 59f
8:00 9 13 mph 1021mb 48f 58f
7:54 10 14 mph 1021.1mb 48f 58f
7:48 11 14 mph 1021.1mb 48f 58f
7:36 13 15 mph 1021.1mb 48f 58f
7:30 13 14 mph 1021mb 48f 59f
7:24 11 14 mph 1021mb 48f 59f
7:18 11 13 mph 1020.9mb 48f 58f
7:12 10 13 mph 1020.9mb 49f 58f
7:06 8 9 mph 1020.9mb 49f 58f
7:00 8 9 mph 1020.9mb 49f 59f
6:54 7 9 mph 1020.9mb 49f 59f
6:48 7 9 mph 1021mb 50f 58f
6:36 9 13 mph 1021.1mb 49f 58f
6:30 11 14 mph 1021.1mb 48f 58f
6:24 13 15 mph 1021.1mb 48f 58f
6:18 11 14 mph 1021.1mb 48f 58f
6:12 10 14 mph 1021mb 49f 58f
6:06 13 15 mph 1021mb 49f 58f
6:00 11 14 mph 1021.1mb 50f 58f
5:54 11 16 mph 1021.1mb 50f 58f
5:48 11 14 mph 1021.1mb 49f 58f
5:36 9 11 mph 1021.1mb 46f 58f
5:30 8 10 mph 1021.2mb 46f 59f
5:24 8 10 mph 1021.2mb 46f 59f
5:18 8 9 mph 1021.1mb 46f 60f
5:12 9 13 mph 1021.2mb 46f 59f
5:06 11 16 mph 1021.2mb 46f 59f
5:00 13 15 mph 1021.3mb 46f 58f
4:54 9 11 mph 1021.3mb 46f 59f
4:48 10 14 mph 1021.3mb 46f 59f
4:30 10 13 mph 1021.2mb 45f 59f
4:24 10 14 mph 1021.3mb 45f 59f
4:18 13 14 mph 1021.5mb 45f 58f
4:12 8 10 mph 1021.6mb 45f 58f
4:06 8 11 mph 1021.7mb 45f 58f
4:00 6 9 mph 1021.6mb 45f 57f
3:54 8 11 mph 1022mb 45f 58f
3:48 8 10 mph 1022.1mb 45f 57f
3:36 8 10 mph 1021.9mb 45f 58f
3:30 7 10 mph 1021.8mb 45f 57f
3:24 5 7 mph 1021.8mb 45f 57f
3:18 5 7 mph 1021.8mb 45f 57f
3:12 6 9 mph 1021.9mb 45f 57f
3:06 6 7 mph 1022.1mb 45f 57f
3:00 5 7 mph 1022.1mb 45f 57f
2:54 5 6 mph 1022.2mb 45f 57f
2:48 5 7 mph 1022.1mb 45f 57f
2:36 5 7 mph 1022.3mb 45f 56f
2:30 5 6 mph 1022.3mb 45f 56f
2:24 3 3 mph 1022.3mb 45f 57f
2:18 1 5 mph 1022.3mb 45f 57f
2:12 5 6 mph 1022.3mb 45f 57f
2:06 5 6 mph 1022.2mb 45f 56f
2:00 5 5 mph 1022.3mb 45f 57f
1:54 1 3 mph 1022.3mb 45f 56f
1:48 5 6 mph 1022.4mb 45f 56f
1:36 3 3 mph 1022.5mb 45f 56f
1:30 3 5 mph 1022.5mb 45f 56f
1:24 5 6 mph 1022.5mb 45f 56f
1:18 3 5 mph 1022.5mb 45f 56f
1:12 2 3 mph 1022.5mb 45f 56f
1:06 3 5 mph 1022.5mb 46f 56f
1:00 3 5 mph 1022.4mb 45f 56f
12:54 3 5 mph 1022.3mb 45f 56f
12:36 3 5 mph 1022.3mb 46f 56f
12:30 2 5 mph 1022.4mb 46f 56f
12:24 3 5 mph 1022.4mb 46f 57f
12:18 1 5 mph 1022.4mb 46f 56f
12:12 5 5 mph 1022.4mb 46f 56f
12:06 1 2 mph 1022.3mb 46f 56f
12:00 2 2 mph 1022.4mb 46f 56f
11:54 2 3 mph 1022.4mb 46f 56f
11:48 3 3 mph 1022.4mb 46f 56f
11:36 2 3 mph 1022.4mb 46f 56f
11:30 2 3 mph 1022.5mb 46f 56f
11:24 2 3 mph 1022.6mb 46f 56f
11:18 2 3 mph 1022.6mb 46f 56f
11:12 3 3 mph 1022.6mb 46f 56f
11:06 2 3 mph 1022.6mb 46f 56f
11:00 3 3 mph 1022.6mb 46f 56f
10:54 3 3 mph 1022.5mb 46f 56f
10:48 2 3 mph 1022.5mb 45f 56f
10:36 1 3 mph 1022.4mb 45f 57f
10:30 2 5 mph 1022.4mb 45f 57f
10:24 1 3 mph 1022.4mb 46f 57f
10:18 3 5 mph 1022.4mb 46f 56f
10:12 2 3 mph 1022.4mb 46f 56f
10:06 2 3 mph 1022.5mb 46f 56f
10:00 2 3 mph 1022.4mb 46f 56f
9:54 2 6 mph 1022.5mb 46f 56f
9:36 2 3 mph 1022.6mb 47f 55f
9:30 3 6 mph 1022.7mb 47f 55f
9:24 6 7 mph 1022.6mb 47f 55f
9:18 3 6 mph 1022.6mb 47f 55f
9:12 3 6 mph 1022.6mb 47f 54f
9:06 5 7 mph 1022.5mb 47f 54f
9:00 5 6 mph 1022.4mb 47f 54f
8:54 6 7 mph 1022.5mb 47f 54f
8:48 5 6 mph 1022.4mb 47f 54f
8:36 5 7 mph 1022.4mb 47f 53f
8:30 5 7 mph 1022.4mb 48f 53f
8:24 5 8 mph 1022.4mb 48f 53f
8:18 7 8 mph 1022.4mb 49f 53f
8:12 6 8 mph 1022.5mb 49f 53f
8:06 6 8 mph 1022.4mb 50f 53f
8:00 6 8 mph 1022.3mb 51f 52f
7:54 7 8 mph 1022.3mb 52f 52f
7:48 6 8 mph 1022.3mb 53f 52f
7:36 6 9 mph 1022.3mb 54f 52f
7:30 6 8 mph 1022.3mb 54f 52f
7:24 7 8 mph 1022.3mb 55f 52f
7:18 7 8 mph 1022.3mb 55f 52f
7:12 6 8 mph 1022.2mb 55f 52f
7:06 6 8 mph 1022.2mb 55f 52f
7:00 7 8 mph 1022.2mb 55f 52f
6:54 6 6 mph 1022.2mb 55f 52f
6:36 5 7 mph 1022.1mb 55f 52f
6:30 6 7 mph 1022.2mb 55f 52f
6:24 6 8 mph 1022.1mb 55f 52f
6:18 6 7 mph 1022.2mb 55f 52f
6:12 6 8 mph 1022.3mb 55f 52f
6:06 6 8 mph 1022.3mb 55f 52f
6:00 5 8 mph 1022.3mb 55f 52f
5:54 6 7 mph 1022.4mb 55f 52f
5:48 5 7 mph 1022.4mb 55f 52f
5:36 5 6 mph 1022.3mb 54f 52f
5:30 6 7 mph 1022.3mb 54f 52f
5:24 5 7 mph 1022.3mb 54f 52f
5:18 5 7 mph 1022.4mb 54f 52f
5:12 6 7 mph 1022.4mb 54f 52f
5:06 5 6 mph 1022.4mb 54f 52f
5:00 6 8 mph 1022.4mb 54f 51f
4:54 6 8 mph 1022.4mb 54f 51f
4:48 6 7 mph 1022.4mb 54f 51f
4:36 6 7 mph 1022.4mb 53f 51f
4:30 6 7 mph 1022.4mb 53f 51f
4:24 6 7 mph 1022.5mb 52f 51f
4:18 6 8 mph 1022.5mb 51f 51f
4:12 5 7 mph 1022.5mb 50f 51f
4:06 6 8 mph 1022.5mb 49f 51f
4:00 7 8 mph 1022.5mb 48f 51f
3:54 7 8 mph 1022.6mb 47f 51f
3:48 7 8 mph 1022.7mb 47f 51f
3:36 6 7 mph 1022.8mb 47f 51f
3:30 6 7 mph 1022.8mb 47f 51f
3:24 7 9 mph 1022.9mb 47f 51f
3:18 6 7 mph 1022.9mb 47f 51f
3:12 6 7 mph 1022.9mb 47f 51f
3:06 6 7 mph 1023mb 47f 51f
3:00 6 7 mph 1023.1mb 47f 51f
2:54 6 7 mph 1023.1mb 47f 51f
2:48 6 7 mph 1023.1mb 47f 51f
2:36 6 8 mph 1023.1mb 47f 51f
2:30 7 9 mph 1023.1mb 47f 51f
2:24 7 9 mph 1023.1mb 46f 51f
2:18 7 9 mph 1023.1mb 47f 51f
2:12 2 9 mph 1023.1mb 46f 51f
2:06 7 9 mph 1023mb 46f 51f
2:00 7 9 mph 1022.9mb 46f 51f
1:54 7 9 mph 1022.9mb 47f 51f
1:48 6 7 mph 1023mb 47f 51f
1:36 2 6 mph 1023.2mb 46f 52f
1:30 3 3 mph 1023.2mb 46f 52f
1:24 5 7 mph 1023.1mb 46f 52f
1:18 7 8 mph 1023mb 46f 52f
1:12 6 7 mph 1023.1mb 46f 52f
1:06 6 6 mph 1023.1mb 46f 52f
1:00 6 7 mph 1023.1mb 46f 52f
12:54 6 8 mph 1023.1mb 46f 52f
12:48 3 8 mph 1023.2mb 46f 52f
12:36 5 7 mph 1023.3mb 46f 52f
12:30 6 7 mph 1023.2mb 46f 52f
12:24 5 6 mph 1023.3mb 46f 53f
12:18 5 6 mph 1023.2mb 46f 53f
12:12 3 5 mph 1023.3mb 46f 52f
12:06 2 5 mph 1023.3mb 47f 53f
12:00 3 6 mph 1023.3mb 47f 53f
Sa 08/19 11:54 3 5 mph 1023.4mb 47f 53f
11:48 3 5 mph 1023.4mb 47f 53f
11:36 5 5 mph 1023.4mb 47f 53f
11:30 5 5 mph 1023.3mb 47f 53f
11:24 3 5 mph 1023.2mb 47f 53f
11:18 2 3 mph 1023.2mb 47f 53f
11:12 2 5 mph 1023.3mb 47f 54f
11:06 2 3 mph 1023.2mb 47f 54f
11:00 2 3 mph 1023.3mb 47f 54f
10:54 2 5 mph 1023.4mb 47f 55f
10:48 2 3 mph 1023.5mb 47f 55f
9:54 3 6 mph 1023.6mb 46f 57f
9:48 3 6 mph 1023.6mb 46f 57f
9:36 5 6 mph 1023.6mb 46f 56f
9:30 2 6 mph 1023.7mb 46f 56f
9:24 5 7 mph 1023.7mb 46f 57f
9:18 6 7 mph 1023.7mb 46f 57f
9:12 6 8 mph 1023.7mb 46f 57f
9:06 6 8 mph 1023.7mb 46f 57f
9:00 7 9 mph 1023.7mb 46f 57f
8:54 6 9 mph 1023.6mb 46f 57f
8:48 8 11 mph 1023.6mb 46f 57f
8:36 8 11 mph 1023.4mb 46f 57f
8:30 10 13 mph 1023.6mb 46f 57f
8:24 9 13 mph 1023.7mb 46f 57f
8:18 9 14 mph 1023.7mb 46f 57f
8:12 9 14 mph 1023.7mb 46f 57f
8:06 10 14 mph 1023.7mb 46f 57f
8:00 9 13 mph 1023.6mb 46f 57f
7:54 9 14 mph 1023.5mb 47f 57f
7:48 9 14 mph 1023.6mb 47f 58f
7:36 11 14 mph 1023.5mb 47f 57f
7:30 11 15 mph 1023.5mb 47f 57f
7:24 9 13 mph 1023.5mb 47f 57f
7:18 8 11 mph 1023.6mb 47f 57f
7:12 8 11 mph 1023.5mb 47f 57f
7:06 9 11 mph 1023.5mb 47f 57f
7:00 9 11 mph 1023.5mb 48f 57f
6:54 9 13 mph 1023.6mb 47f 57f
6:48 8 10 mph 1023.7mb 47f 57f
6:36 8 11 mph 1023.8mb 47f 57f
6:30 8 10 mph 1023.7mb 48f 57f
6:24 8 10 mph 1023.7mb 48f 57f
6:18 8 11 mph 1023.7mb 48f 57f
6:12 9 11 mph 1023.8mb 48f 57f
6:06 9 11 mph 1023.8mb 48f 57f
6:00 9 11 mph 1023.8mb 48f 57f
5:54 9 13 mph 1023.8mb 49f 57f
5:48 9 11 mph 1023.8mb 48f 57f
5:36 9 11 mph 1023.8mb 48f 57f
5:30 9 11 mph 1023.8mb 48f 57f
5:24 9 11 mph 1023.8mb 48f 57f
5:18 9 11 mph 1023.9mb 48f 57f
5:12 9 11 mph 1023.9mb 49f 57f
5:06 9 11 mph 1024mb 48f 57f
5:00 9 10 mph 1024mb 48f 57f
4:54 9 11 mph 1023.9mb 48f 57f
4:36 8 11 mph 1024.1mb 48f 57f
4:30 9 10 mph 1024.1mb 48f 57f
4:24 9 11 mph 1024.2mb 48f 57f
4:18 9 11 mph 1024.2mb 48f 57f
4:12 9 11 mph 1024.2mb 48f 57f
4:06 9 11 mph 1024.2mb 47f 57f
4:00 8 10 mph 1024.2mb 47f 57f
3:54 8 10 mph 1024.2mb 47f 57f
3:48 7 10 mph 1024.2mb 47f 57f
3:36 7 9 mph 1024.3mb 47f 56f
3:30 6 8 mph 1024.4mb 47f 56f
3:24 7 9 mph 1024.4mb 47f 56f
3:18 7 9 mph 1024.5mb 46f 56f
3:12 8 9 mph 1024.5mb 46f 56f
3:06 7 9 mph 1024.5mb 46f 56f
3:00 8 9 mph 1024.6mb 47f 56f
2:54 8 9 mph 1024.6mb 44f 56f
2:48 7 8 mph 1024.6mb 44f 56f
2:36 6 8 mph 1024.6mb 44f 57f
2:30 5 7 mph 1024.6mb 44f 57f
2:24 6 7 mph 1024.5mb 44f 57f
2:18 6 7 mph 1024.5mb 44f 57f
2:12 6 7 mph 1024.5mb 44f 57f
2:06 6 7 mph 1024.5mb 44f 57f
2:00 5 6 mph 1024.5mb 44f 57f
1:54 5 7 mph 1024.5mb 44f 56f
1:48 5 7 mph 1024.6mb 44f 57f
1:36 5 6 mph 1024.5mb 45f 56f
1:30 6 7 mph 1024.5mb 45f 57f
1:24 5 6 mph 1024.5mb 45f 57f
1:18 6 7 mph 1024.6mb 45f 56f
1:12 6 7 mph 1024.6mb 45f 57f
1:06 6 6 mph 1024.6mb 45f 56f
1:00 6 6 mph 1024.6mb 45f 57f
12:54 5 6 mph 1024.6mb 45f 56f
12:48 5 8 mph 1024.6mb 45f 56f
12:36 5 6 mph 1024.6mb 45f 56f
12:30 3 5 mph 1024.6mb 45f 56f
12:24 5 6 mph 1024.6mb 45f 56f
12:18 3 5 mph 1024.6mb 45f 56f
12:12 3 6 mph 1024.6mb 45f 56f
12:06 3 6 mph 1024.5mb 45f 56f
12:00 3 6 mph 1024.5mb 45f 56f
11:54 5 5 mph 1024.5mb 45f 56f
11:48 3 5 mph 1024.5mb 45f 56f
11:36 5 6 mph 1024.6mb 45f 56f
11:30 5 6 mph 1024.5mb 45f 56f
11:24 5 6 mph 1024.4mb 45f 56f
11:18 5 6 mph 1024.4mb 45f 56f
11:12 6 6 mph 1024.4mb 45f 56f
11:06 5 6 mph 1024.4mb 45f 56f
11:00 5 5 mph 1024.3mb 45f 56f
10:54 3 6 mph 1024.3mb 45f 56f
10:48 5 5 mph 1024.3mb 45f 56f
10:36 3 5 mph 1024.3mb 45f 56f
10:30 3 3 mph 1024.3mb 46f 56f
10:24 2 5 mph 1024.2mb 46f 56f
10:18 3 6 mph 1024.2mb 46f 56f
10:12 5 5 mph 1024.2mb 46f 56f
10:06 3 5 mph 1024.2mb 46f 56f
10:00 3 5 mph 1024.2mb 45f 56f
9:54 3 5 mph 1024.2mb 44f 56f
9:48 3 5 mph 1024.1mb 44f 56f
9:36 3 5 mph 1024.1mb 45f 56f
9:30 3 5 mph 1024.1mb 45f 55f
9:24 5 5 mph 1024.1mb 45f 55f
9:18 5 5 mph 1024mb 45f 55f
9:12 3 5 mph 1024mb 45f 55f
9:06 3 5 mph 1024mb 45f 55f
9:00 3 5 mph 1023.9mb 46f 56f
8:54 3 5 mph 1023.9mb 46f 55f
8:48 3 5 mph 1023.9mb 46f 55f
8:36 3 5 mph 1023.9mb 46f 54f
8:30 3 6 mph 1023.9mb 46f 54f
8:24 3 5 mph 1023.8mb 46f 54f
8:18 5 6 mph 1023.8mb 46f 54f
8:12 1 2 mph 1023.7mb 46f 54f
8:06 1 2 mph 1023.7mb 46f 54f
8:00  -  1 mph 1023.7mb 47f 54f
7:54  -  1 mph 1023.7mb 47f 54f
7:48  -  1 mph 1023.7mb 47f 53f
7:36  -  1 mph 1023.6mb 49f 53f
7:30  -  1 mph 1023.5mb 49f 53f
7:24  -  1 mph 1023.5mb 50f 53f
7:18  -  2 mph 1023.5mb 50f 52f
7:12 2 2 mph 1023.4mb 50f 52f
7:06  -  2 mph 1023.4mb 51f 52f
7:00 2 3 mph 1023.3mb 52f 52f
6:54 2 2 mph 1023.3mb 53f 52f
6:48 2 3 mph 1023.3mb 53f 53f
6:36  -  2 mph 1023.3mb 54f 52f
6:30  -  1 mph 1023.3mb 54f 52f
6:24  -  2 mph 1023.3mb 54f 52f
6:18 2 3 mph 1023.3mb 55f 52f